sensor_id;sensor_type;location;lat;lon;timestamp;temperature;humidity
41437;DHT22;27178;49.460;10.850;2022-12-18T00:00:09;-5.20;70.90
41437;DHT22;27178;49.460;10.850;2022-12-18T00:02:39;-5.30;70.90
41437;DHT22;27178;49.460;10.850;2022-12-18T00:05:08;-5.30;70.60
41437;DHT22;27178;49.460;10.850;2022-12-18T00:07:36;-5.30;70.70
41437;DHT22;27178;49.460;10.850;2022-12-18T00:10:06;-5.30;70.70
41437;DHT22;27178;49.460;10.850;2022-12-18T00:12:35;-5.40;71.60
41437;DHT22;27178;49.460;10.850;2022-12-18T00:15:04;-5.30;70.50
41437;DHT22;27178;49.460;10.850;2022-12-18T00:17:33;-5.40;71.40
41437;DHT22;27178;49.460;10.850;2022-12-18T00:20:03;-5.40;70.30
41437;DHT22;27178;49.460;10.850;2022-12-18T00:22:31;-5.40;70.40
41437;DHT22;27178;49.460;10.850;2022-12-18T00:24:59;-5.50;70.50
41437;DHT22;27178;49.460;10.850;2022-12-18T00:27:28;-5.50;70.60
41437;DHT22;27178;49.460;10.850;2022-12-18T00:29:56;-5.50;70.70
41437;DHT22;27178;49.460;10.850;2022-12-18T00:32:24;-5.50;70.50
41437;DHT22;27178;49.460;10.850;2022-12-18T00:34:52;-5.50;70.30
41437;DHT22;27178;49.460;10.850;2022-12-18T00:37:22;-5.60;70.00
41437;DHT22;27178;49.460;10.850;2022-12-18T00:39:51;-5.60;69.70
41437;DHT22;27178;49.460;10.850;2022-12-18T00:42:19;-5.60;70.00
41437;DHT22;27178;49.460;10.850;2022-12-18T00:45:05;-5.70;70.10
41437;DHT22;27178;49.460;10.850;2022-12-18T00:47:39;-5.70;70.40
41437;DHT22;27178;49.460;10.850;2022-12-18T00:50:09;-5.70;70.60
41437;DHT22;27178;49.460;10.850;2022-12-18T00:52:39;-5.80;70.60
41437;DHT22;27178;49.460;10.850;2022-12-18T00:55:07;-5.70;70.40
41437;DHT22;27178;49.460;10.850;2022-12-18T00:57:36;-5.80;70.60
41437;DHT22;27178;49.460;10.850;2022-12-18T01:00:09;-5.70;70.60
41437;DHT22;27178;49.460;10.850;2022-12-18T01:02:38;-5.70;70.80
41437;DHT22;27178;49.460;10.850;2022-12-18T01:05:07;-5.80;70.90
41437;DHT22;27178;49.460;10.850;2022-12-18T01:07:36;-5.80;70.80
41437;DHT22;27178;49.460;10.850;2022-12-18T01:10:08;-5.70;70.80
41437;DHT22;27178;49.460;10.850;2022-12-18T01:12:38;-5.80;70.80
41437;DHT22;27178;49.460;10.850;2022-12-18T01:15:07;-5.80;70.60
41437;DHT22;27178;49.460;10.850;2022-12-18T01:17:36;-5.80;70.60
41437;DHT22;27178;49.460;10.850;2022-12-18T01:20:05;-5.80;70.50
41437;DHT22;27178;49.460;10.850;2022-12-18T01:22:34;-5.80;70.60
41437;DHT22;27178;49.460;10.850;2022-12-18T01:25:03;-5.80;70.40
41437;DHT22;27178;49.460;10.850;2022-12-18T01:27:34;-5.90;70.20
41437;DHT22;27178;49.460;10.850;2022-12-18T01:30:04;-5.80;69.70
41437;DHT22;27178;49.460;10.850;2022-12-18T01:32:32;-5.90;69.70
41437;DHT22;27178;49.460;10.850;2022-12-18T01:35:01;-6.00;69.50
41437;DHT22;27178;49.460;10.850;2022-12-18T01:37:29;-6.00;69.20
41437;DHT22;27178;49.460;10.850;2022-12-18T01:39:58;-6.10;69.20
41437;DHT22;27178;49.460;10.850;2022-12-18T01:42:26;-6.10;69.30
41437;DHT22;27178;49.460;10.850;2022-12-18T01:44:59;-6.20;69.30
41437;DHT22;27178;49.460;10.850;2022-12-18T01:47:32;-6.20;69.80
41437;DHT22;27178;49.460;10.850;2022-12-18T01:50:04;-6.30;70.00
41437;DHT22;27178;49.460;10.850;2022-12-18T01:52:36;-6.20;70.20
41437;DHT22;27178;49.460;10.850;2022-12-18T01:55:06;-6.20;70.30
41437;DHT22;27178;49.460;10.850;2022-12-18T01:57:35;-6.30;70.20
41437;DHT22;27178;49.460;10.850;2022-12-18T02:00:09;-6.30;70.30
41437;DHT22;27178;49.460;10.850;2022-12-18T02:02:39;-6.30;70.40
41437;DHT22;27178;49.460;10.850;2022-12-18T02:05:09;-6.20;70.50
41437;DHT22;27178;49.460;10.850;2022-12-18T02:07:45;-6.30;70.50
41437;DHT22;27178;49.460;10.850;2022-12-18T02:10:20;-6.30;70.50
41437;DHT22;27178;49.460;10.850;2022-12-18T02:12:56;-6.20;70.70
41437;DHT22;27178;49.460;10.850;2022-12-18T02:15:34;-6.20;71.10
41437;DHT22;27178;49.460;10.850;2022-12-18T02:18:07;-6.20;71.50
41437;DHT22;27178;49.460;10.850;2022-12-18T02:20:40;-6.10;72.50
41437;DHT22;27178;49.460;10.850;2022-12-18T02:23:19;-6.10;73.20
41437;DHT22;27178;49.460;10.850;2022-12-18T02:26:08;-6.00;73.80
41437;DHT22;27178;49.460;10.850;2022-12-18T02:28:44;-5.90;74.30
41437;DHT22;27178;49.460;10.850;2022-12-18T02:31:16;-7.20;73.70
41437;DHT22;27178;49.460;10.850;2022-12-18T02:33:48;-5.80;74.70
41437;DHT22;27178;49.460;10.850;2022-12-18T02:36:18;-5.60;74.90
41437;DHT22;27178;49.460;10.850;2022-12-18T02:38:48;-5.60;74.40
41437;DHT22;27178;49.460;10.850;2022-12-18T02:44:46;-5.50;73.40
41437;DHT22;27178;49.460;10.850;2022-12-18T02:47:19;-4.80;73.60
41437;DHT22;27178;49.460;10.850;2022-12-18T02:49:57;-5.40;73.10
41437;DHT22;27178;49.460;10.850;2022-12-18T02:52:31;-5.40;72.90
41437;DHT22;27178;49.460;10.850;2022-12-18T02:55:13;-5.30;72.80
41437;DHT22;27178;49.460;10.850;2022-12-18T02:57:48;-5.40;72.60
41437;DHT22;27178;49.460;10.850;2022-12-18T03:00:22;-5.30;72.50
41437;DHT22;27178;49.460;10.850;2022-12-18T03:02:56;-5.30;72.30
41437;DHT22;27178;49.460;10.850;2022-12-18T03:05:33;-5.30;72.50
41437;DHT22;27178;49.460;10.850;2022-12-18T03:08:06;-5.30;72.50
41437;DHT22;27178;49.460;10.850;2022-12-18T03:10:49;-5.30;72.50
41437;DHT22;27178;49.460;10.850;2022-12-18T03:13:21;-5.30;72.70
41437;DHT22;27178;49.460;10.850;2022-12-18T03:15:55;-5.30;72.70
41437;DHT22;27178;49.460;10.850;2022-12-18T03:18:27;-5.30;72.70
41437;DHT22;27178;49.460;10.850;2022-12-18T03:21:00;-5.30;72.90
41437;DHT22;27178;49.460;10.850;2022-12-18T03:23:35;-5.20;73.00
41437;DHT22;27178;49.460;10.850;2022-12-18T03:26:09;-5.20;73.10
41437;DHT22;27178;49.460;10.850;2022-12-18T03:28:42;-4.00;73.90
41437;DHT22;27178;49.460;10.850;2022-12-18T03:31:14;-5.10;73.10
41437;DHT22;27178;49.460;10.850;2022-12-18T03:33:46;-5.10;73.10
41437;DHT22;27178;49.460;10.850;2022-12-18T03:36:15;-5.00;73.40
41437;DHT22;27178;49.460;10.850;2022-12-18T03:38:43;-5.00;73.40
41437;DHT22;27178;49.460;10.850;2022-12-18T03:41:17;-5.00;73.50
41437;DHT22;27178;49.460;10.850;2022-12-18T03:43:52;-5.00;73.70
41437;DHT22;27178;49.460;10.850;2022-12-18T03:46:28;-5.00;73.90
41437;DHT22;27178;49.460;10.850;2022-12-18T03:49:01;-4.80;74.20
41437;DHT22;27178;49.460;10.850;2022-12-18T03:51:39;-4.80;74.20
41437;DHT22;27178;49.460;10.850;2022-12-18T03:54:09;-4.70;74.40
41437;DHT22;27178;49.460;10.850;2022-12-18T03:56:42;-4.70;74.40
41437;DHT22;27178;49.460;10.850;2022-12-18T03:59:13;-4.70;74.40
41437;DHT22;27178;49.460;10.850;2022-12-18T04:01:47;-4.60;75.50
41437;DHT22;27178;49.460;10.850;2022-12-18T04:04:16;-4.60;74.60
41437;DHT22;27178;49.460;10.850;2022-12-18T04:06:47;-4.50;74.90
41437;DHT22;27178;49.460;10.850;2022-12-18T04:09:18;-4.50;75.00
41437;DHT22;27178;49.460;10.850;2022-12-18T04:11:47;-4.40;75.10
41437;DHT22;27178;49.460;10.850;2022-12-18T04:14:15;-4.30;75.10
41437;DHT22;27178;49.460;10.850;2022-12-18T04:16:45;-4.30;75.10
41437;DHT22;27178;49.460;10.850;2022-12-18T04:19:14;-4.20;75.10
41437;DHT22;27178;49.460;10.850;2022-12-18T04:21:42;-4.20;75.20
41437;DHT22;27178;49.460;10.850;2022-12-18T04:24:10;-4.10;75.10
41437;DHT22;27178;49.460;10.850;2022-12-18T04:26:38;-4.10;75.10
41437;DHT22;27178;49.460;10.850;2022-12-18T04:29:06;-4.00;75.10
41437;DHT22;27178;49.460;10.850;2022-12-18T04:31:35;-4.00;75.10
41437;DHT22;27178;49.460;10.850;2022-12-18T04:34:05;-4.00;75.10
41437;DHT22;27178;49.460;10.850;2022-12-18T04:36:34;-3.90;75.20
41437;DHT22;27178;49.460;10.850;2022-12-18T04:39:02;-3.90;75.10
41437;DHT22;27178;49.460;10.850;2022-12-18T04:41:30;-3.80;75.30
41437;DHT22;27178;49.460;10.850;2022-12-18T04:43:59;-3.80;75.30
41437;DHT22;27178;49.460;10.850;2022-12-18T04:46:27;-3.80;75.50
41437;DHT22;27178;49.460;10.850;2022-12-18T04:48:56;-3.70;75.70
41437;DHT22;27178;49.460;10.850;2022-12-18T04:51:26;-3.70;76.00
41437;DHT22;27178;49.460;10.850;2022-12-18T04:53:54;-3.60;76.50
41437;DHT22;27178;49.460;10.850;2022-12-18T04:56:22;-3.60;77.00
41437;DHT22;27178;49.460;10.850;2022-12-18T04:58:51;-3.50;77.30
41437;DHT22;27178;49.460;10.850;2022-12-18T05:01:19;-3.40;77.60
41437;DHT22;27178;49.460;10.850;2022-12-18T05:03:48;-3.40;77.90
41437;DHT22;27178;49.460;10.850;2022-12-18T05:06:17;-3.20;78.20
41437;DHT22;27178;49.460;10.850;2022-12-18T05:08:46;-3.20;78.40
41437;DHT22;27178;49.460;10.850;2022-12-18T05:11:15;-3.10;78.50
41437;DHT22;27178;49.460;10.850;2022-12-18T05:13:44;-3.10;78.50
41437;DHT22;27178;49.460;10.850;2022-12-18T05:16:13;-3.00;78.50
41437;DHT22;27178;49.460;10.850;2022-12-18T05:18:43;-2.90;78.50
41437;DHT22;27178;49.460;10.850;2022-12-18T05:21:11;-2.80;78.50
41437;DHT22;27178;49.460;10.850;2022-12-18T05:23:39;-2.80;78.50
41437;DHT22;27178;49.460;10.850;2022-12-18T05:26:15;-2.70;78.50
41437;DHT22;27178;49.460;10.850;2022-12-18T05:28:44;-2.60;78.70
41437;DHT22;27178;49.460;10.850;2022-12-18T05:31:13;-2.60;78.60
41437;DHT22;27178;49.460;10.850;2022-12-18T05:33:42;-2.60;78.50
41437;DHT22;27178;49.460;10.850;2022-12-18T05:36:10;-2.50;78.60
41437;DHT22;27178;49.460;10.850;2022-12-18T05:38:40;-2.50;78.50
41437;DHT22;27178;49.460;10.850;2022-12-18T05:41:10;-2.40;78.60
41437;DHT22;27178;49.460;10.850;2022-12-18T05:43:39;-2.40;78.70
41437;DHT22;27178;49.460;10.850;2022-12-18T05:46:12;-2.30;78.60
41437;DHT22;27178;49.460;10.850;2022-12-18T05:48:41;-2.30;78.60
41437;DHT22;27178;49.460;10.850;2022-12-18T05:51:11;-2.30;78.50
41437;DHT22;27178;49.460;10.850;2022-12-18T05:53:40;-2.20;78.40
41437;DHT22;27178;49.460;10.850;2022-12-18T05:56:12;-2.20;78.40
41437;DHT22;27178;49.460;10.850;2022-12-18T05:58:42;-2.20;78.40
41437;DHT22;27178;49.460;10.850;2022-12-18T06:01:12;-2.20;78.40
41437;DHT22;27178;49.460;10.850;2022-12-18T06:03:40;-2.10;78.60
41437;DHT22;27178;49.460;10.850;2022-12-18T06:06:14;-2.10;78.60
41437;DHT22;27178;49.460;10.850;2022-12-18T06:08:42;-2.10;78.60
41437;DHT22;27178;49.460;10.850;2022-12-18T06:11:18;-2.10;78.60
41437;DHT22;27178;49.460;10.850;2022-12-18T06:13:46;-2.00;78.80
41437;DHT22;27178;49.460;10.850;2022-12-18T06:16:20;-2.00;78.80
41437;DHT22;27178;49.460;10.850;2022-12-18T06:18:48;-2.00;78.80
41437;DHT22;27178;49.460;10.850;2022-12-18T06:21:17;-1.90;78.90
41437;DHT22;27178;49.460;10.850;2022-12-18T06:23:45;-1.90;78.90
41437;DHT22;27178;49.460;10.850;2022-12-18T06:26:15;-1.90;78.70
41437;DHT22;27178;49.460;10.850;2022-12-18T06:28:49;-1.90;78.70
41437;DHT22;27178;49.460;10.850;2022-12-18T06:31:17;-1.80;78.70
41437;DHT22;27178;49.460;10.850;2022-12-18T06:33:45;-1.80;78.60
41437;DHT22;27178;49.460;10.850;2022-12-18T06:36:14;-1.80;78.90
41437;DHT22;27178;49.460;10.850;2022-12-18T06:38:44;-1.80;78.90
41437;DHT22;27178;49.460;10.850;2022-12-18T06:41:15;-1.70;78.90
41437;DHT22;27178;49.460;10.850;2022-12-18T06:43:44;-1.70;78.90
41437;DHT22;27178;49.460;10.850;2022-12-18T06:46:13;-1.70;79.00
41437;DHT22;27178;49.460;10.850;2022-12-18T06:48:41;-1.70;79.00
41437;DHT22;27178;49.460;10.850;2022-12-18T06:51:10;-1.70;79.00
41437;DHT22;27178;49.460;10.850;2022-12-18T06:53:38;-1.60;79.10
41437;DHT22;27178;49.460;10.850;2022-12-18T06:56:08;-1.60;79.10
41437;DHT22;27178;49.460;10.850;2022-12-18T06:58:38;-1.60;79.20
41437;DHT22;27178;49.460;10.850;2022-12-18T07:01:09;-1.60;79.30
41437;DHT22;27178;49.460;10.850;2022-12-18T07:03:39;-1.50;79.40
41437;DHT22;27178;49.460;10.850;2022-12-18T07:06:14;-1.50;79.30
41437;DHT22;27178;49.460;10.850;2022-12-18T07:08:43;-1.50;79.30
41437;DHT22;27178;49.460;10.850;2022-12-18T07:11:12;-1.50;79.30
41437;DHT22;27178;49.460;10.850;2022-12-18T07:13:42;-1.40;79.30
41437;DHT22;27178;49.460;10.850;2022-12-18T07:16:12;-1.40;79.30
41437;DHT22;27178;49.460;10.850;2022-12-18T07:18:50;-1.40;79.40
41437;DHT22;27178;49.460;10.850;2022-12-18T07:21:21;-1.40;79.40
41437;DHT22;27178;49.460;10.850;2022-12-18T07:23:50;-1.30;79.60
41437;DHT22;27178;49.460;10.850;2022-12-18T07:26:19;-1.30;79.40
41437;DHT22;27178;49.460;10.850;2022-12-18T07:28:49;-1.30;79.60
41437;DHT22;27178;49.460;10.850;2022-12-18T07:31:20;-1.30;79.50
41437;DHT22;27178;49.460;10.850;2022-12-18T07:33:49;-1.30;79.40
41437;DHT22;27178;49.460;10.850;2022-12-18T07:36:18;-1.30;79.40
41437;DHT22;27178;49.460;10.850;2022-12-18T07:38:47;-1.20;79.50
41437;DHT22;27178;49.460;10.850;2022-12-18T07:41:16;-1.20;79.60
41437;DHT22;27178;49.460;10.850;2022-12-18T07:43:45;-1.20;79.40
41437;DHT22;27178;49.460;10.850;2022-12-18T07:46:15;-1.10;79.50
41437;DHT22;27178;49.460;10.850;2022-12-18T07:48:45;-1.10;79.40
41437;DHT22;27178;49.460;10.850;2022-12-18T07:51:16;-1.10;79.30
41437;DHT22;27178;49.460;10.850;2022-12-18T07:53:45;-1.00;79.40
41437;DHT22;27178;49.460;10.850;2022-12-18T07:56:18;-1.00;79.40
41437;DHT22;27178;49.460;10.850;2022-12-18T07:58:57;-1.00;80.20
41437;DHT22;27178;49.460;10.850;2022-12-18T08:01:27;-0.90;79.20
41437;DHT22;27178;49.460;10.850;2022-12-18T08:03:57;-1.00;79.00
41437;DHT22;27178;49.460;10.850;2022-12-18T08:06:25;-0.90;79.20
41437;DHT22;27178;49.460;10.850;2022-12-18T08:08:55;-0.90;79.20
41437;DHT22;27178;49.460;10.850;2022-12-18T08:11:25;-1.00;79.20
41437;DHT22;27178;49.460;10.850;2022-12-18T08:13:55;-0.80;79.40
41437;DHT22;27178;49.460;10.850;2022-12-18T08:16:24;-0.80;79.30
41437;DHT22;27178;49.460;10.850;2022-12-18T08:18:54;-0.80;79.20
41437;DHT22;27178;49.460;10.850;2022-12-18T08:21:24;-0.80;79.20
41437;DHT22;27178;49.460;10.850;2022-12-18T08:23:54;-0.70;79.30
41437;DHT22;27178;49.460;10.850;2022-12-18T08:26:25;-0.70;79.20
41437;DHT22;27178;49.460;10.850;2022-12-18T08:28:55;-0.70;79.20
41437;DHT22;27178;49.460;10.850;2022-12-18T08:31:23;-0.70;79.30
41437;DHT22;27178;49.460;10.850;2022-12-18T08:33:54;-0.60;79.20
41437;DHT22;27178;49.460;10.850;2022-12-18T08:36:23;-0.60;79.20
41437;DHT22;27178;49.460;10.850;2022-12-18T08:38:53;-0.60;79.10
41437;DHT22;27178;49.460;10.850;2022-12-18T08:41:22;-0.60;79.00
41437;DHT22;27178;49.460;10.850;2022-12-18T08:43:50;-0.50;79.10
41437;DHT22;27178;49.460;10.850;2022-12-18T08:46:37;-0.50;79.00
41437;DHT22;27178;49.460;10.850;2022-12-18T08:49:08;-0.50;79.10
41437;DHT22;27178;49.460;10.850;2022-12-18T08:51:37;-0.50;79.10
41437;DHT22;27178;49.460;10.850;2022-12-18T08:54:05;-0.50;79.10
41437;DHT22;27178;49.460;10.850;2022-12-18T08:56:34;-0.50;79.10
41437;DHT22;27178;49.460;10.850;2022-12-18T08:59:03;-0.50;79.10
41437;DHT22;27178;49.460;10.850;2022-12-18T09:01:32;-0.40;79.10
41437;DHT22;27178;49.460;10.850;2022-12-18T09:04:01;-0.40;79.00
41437;DHT22;27178;49.460;10.850;2022-12-18T09:06:31;-0.40;79.10
41437;DHT22;27178;49.460;10.850;2022-12-18T09:08:59;-0.30;79.20
41437;DHT22;27178;49.460;10.850;2022-12-18T09:11:29;-0.30;79.10
41437;DHT22;27178;49.460;10.850;2022-12-18T09:13:59;-0.30;79.20
41437;DHT22;27178;49.460;10.850;2022-12-18T09:16:29;-0.20;79.20
41437;DHT22;27178;49.460;10.850;2022-12-18T09:18:59;-0.20;79.00
41437;DHT22;27178;49.460;10.850;2022-12-18T09:21:29;-0.20;78.90
41437;DHT22;27178;49.460;10.850;2022-12-18T09:24:05;-0.10;79.00
41437;DHT22;27178;49.460;10.850;2022-12-18T09:26:35;-0.10;78.90
41437;DHT22;27178;49.460;10.850;2022-12-18T09:29:05;0.00;78.20
41437;DHT22;27178;49.460;10.850;2022-12-18T09:31:36;0.00;78.80
41437;DHT22;27178;49.460;10.850;2022-12-18T09:34:04;0.00;78.80
41437;DHT22;27178;49.460;10.850;2022-12-18T09:36:33;0.00;78.80
41437;DHT22;27178;49.460;10.850;2022-12-18T09:39:02;0.10;78.80
41437;DHT22;27178;49.460;10.850;2022-12-18T09:41:44;0.10;78.90
41437;DHT22;27178;49.460;10.850;2022-12-18T09:44:21;0.10;78.90
41437;DHT22;27178;49.460;10.850;2022-12-18T09:49:40;0.20;78.90
41437;DHT22;27178;49.460;10.850;2022-12-18T09:52:14;0.20;78.80
41437;DHT22;27178;49.460;10.850;2022-12-18T09:54:47;0.20;78.80
41437;DHT22;27178;49.460;10.850;2022-12-18T09:57:20;0.20;78.70
41437;DHT22;27178;49.460;10.850;2022-12-18T09:59:54;0.30;78.80
41437;DHT22;27178;49.460;10.850;2022-12-18T10:02:24;0.30;78.80
41437;DHT22;27178;49.460;10.850;2022-12-18T10:05:02;0.30;78.80
41437;DHT22;27178;49.460;10.850;2022-12-18T10:07:42;0.30;78.80
41437;DHT22;27178;49.460;10.850;2022-12-18T10:10:23;0.40;78.80
41437;DHT22;27178;49.460;10.850;2022-12-18T10:13:02;0.50;78.80
41437;DHT22;27178;49.460;10.850;2022-12-18T10:15:36;0.50;78.60
41437;DHT22;27178;49.460;10.850;2022-12-18T10:18:19;0.50;78.50
41437;DHT22;27178;49.460;10.850;2022-12-18T10:20:51;0.60;78.60
41437;DHT22;27178;49.460;10.850;2022-12-18T10:23:25;0.60;78.60
41437;DHT22;27178;49.460;10.850;2022-12-18T10:26:00;0.60;78.60
41437;DHT22;27178;49.460;10.850;2022-12-18T10:28:32;0.70;78.50
41437;DHT22;27178;49.460;10.850;2022-12-18T10:31:00;0.70;78.40
41437;DHT22;27178;49.460;10.850;2022-12-18T10:33:31;0.80;78.40
41437;DHT22;27178;49.460;10.850;2022-12-18T10:36:00;0.80;78.40
41437;DHT22;27178;49.460;10.850;2022-12-18T10:38:31;0.80;78.30
41437;DHT22;27178;49.460;10.850;2022-12-18T10:41:01;0.80;78.30
41437;DHT22;27178;49.460;10.850;2022-12-18T10:43:33;0.90;78.40
41437;DHT22;27178;49.460;10.850;2022-12-18T10:46:08;0.90;78.30
41437;DHT22;27178;49.460;10.850;2022-12-18T10:48:49;0.90;78.40
41437;DHT22;27178;49.460;10.850;2022-12-18T10:51:24;1.00;78.40
41437;DHT22;27178;49.460;10.850;2022-12-18T10:53:59;1.00;78.40
41437;DHT22;27178;49.460;10.850;2022-12-18T10:56:29;1.00;79.20
41437;DHT22;27178;49.460;10.850;2022-12-18T10:59:02;1.00;78.40
41437;DHT22;27178;49.460;10.850;2022-12-18T11:01:49;1.00;78.40
41437;DHT22;27178;49.460;10.850;2022-12-18T11:04:20;1.10;78.40
41437;DHT22;27178;49.460;10.850;2022-12-18T11:06:57;1.10;78.20
41437;DHT22;27178;49.460;10.850;2022-12-18T11:09:27;1.10;78.20
41437;DHT22;27178;49.460;10.850;2022-12-18T11:11:57;1.20;78.20
41437;DHT22;27178;49.460;10.850;2022-12-18T11:14:29;1.20;78.30
41437;DHT22;27178;49.460;10.850;2022-12-18T11:17:00;1.20;78.20
41437;DHT22;27178;49.460;10.850;2022-12-18T11:19:53;1.20;78.20
41437;DHT22;27178;49.460;10.850;2022-12-18T11:22:25;1.30;78.40
41437;DHT22;27178;49.460;10.850;2022-12-18T11:24:58;1.30;78.30
41437;DHT22;27178;49.460;10.850;2022-12-18T11:27:48;1.40;78.30
41437;DHT22;27178;49.460;10.850;2022-12-18T11:30:24;1.40;78.20
41437;DHT22;27178;49.460;10.850;2022-12-18T11:32:56;1.50;78.20
41437;DHT22;27178;49.460;10.850;2022-12-18T11:35:43;1.50;78.20
41437;DHT22;27178;49.460;10.850;2022-12-18T11:38:20;1.50;78.00
41437;DHT22;27178;49.460;10.850;2022-12-18T11:40:56;1.60;78.00
41437;DHT22;27178;49.460;10.850;2022-12-18T11:43:29;1.60;77.70
41437;DHT22;27178;49.460;10.850;2022-12-18T11:46:04;1.60;77.30
41437;DHT22;27178;49.460;10.850;2022-12-18T11:48:44;1.60;77.10
41437;DHT22;27178;49.460;10.850;2022-12-18T11:51:18;1.70;77.10
41437;DHT22;27178;49.460;10.850;2022-12-18T11:53:53;1.60;76.80
41437;DHT22;27178;49.460;10.850;2022-12-18T11:56:30;1.70;77.10
41437;DHT22;27178;49.460;10.850;2022-12-18T11:59:08;1.70;77.30
41437;DHT22;27178;49.460;10.850;2022-12-18T12:01:46;1.80;77.50
41437;DHT22;27178;49.460;10.850;2022-12-18T12:04:45;1.80;78.40
41437;DHT22;27178;49.460;10.850;2022-12-18T12:07:30;1.80;77.40
41437;DHT22;27178;49.460;10.850;2022-12-18T12:10:09;1.90;77.40
41437;DHT22;27178;49.460;10.850;2022-12-18T12:12:58;3.00;77.90
41437;DHT22;27178;49.460;10.850;2022-12-18T12:15:33;2.00;77.10
41437;DHT22;27178;49.460;10.850;2022-12-18T12:18:08;2.00;77.00
41437;DHT22;27178;49.460;10.850;2022-12-18T12:20:47;2.10;76.90
41437;DHT22;27178;49.460;10.850;2022-12-18T12:23:30;2.10;76.70
41437;DHT22;27178;49.460;10.850;2022-12-18T12:26:05;2.10;76.50
41437;DHT22;27178;49.460;10.850;2022-12-18T12:29:05;2.20;76.40
41437;DHT22;27178;49.460;10.850;2022-12-18T12:31:52;2.20;76.00
41437;DHT22;27178;49.460;10.850;2022-12-18T12:34:25;2.20;76.10
41437;DHT22;27178;49.460;10.850;2022-12-18T12:37:07;2.20;76.20
41437;DHT22;27178;49.460;10.850;2022-12-18T12:39:39;2.20;76.00
41437;DHT22;27178;49.460;10.850;2022-12-18T12:42:15;2.30;76.30
41437;DHT22;27178;49.460;10.850;2022-12-18T12:45:06;2.20;76.10
41437;DHT22;27178;49.460;10.850;2022-12-18T12:47:38;2.30;76.20
41437;DHT22;27178;49.460;10.850;2022-12-18T12:50:16;2.30;76.00
41437;DHT22;27178;49.460;10.850;2022-12-18T12:52:47;2.30;76.00
41437;DHT22;27178;49.460;10.850;2022-12-18T12:55:19;2.30;76.00
41437;DHT22;27178;49.460;10.850;2022-12-18T12:57:57;2.40;76.10
41437;DHT22;27178;49.460;10.850;2022-12-18T13:00:34;2.40;76.00
41437;DHT22;27178;49.460;10.850;2022-12-18T13:03:11;2.50;75.80
41437;DHT22;27178;49.460;10.850;2022-12-18T13:05:45;2.50;75.80
41437;DHT22;27178;49.460;10.850;2022-12-18T13:08:24;2.50;75.80
41437;DHT22;27178;49.460;10.850;2022-12-18T13:10:53;2.60;75.50
41437;DHT22;27178;49.460;10.850;2022-12-18T13:13:49;2.60;75.60
41437;DHT22;27178;49.460;10.850;2022-12-18T13:16:20;2.70;75.70
41437;DHT22;27178;49.460;10.850;2022-12-18T13:18:50;2.70;75.60
41437;DHT22;27178;49.460;10.850;2022-12-18T13:21:25;2.80;75.40
41437;DHT22;27178;49.460;10.850;2022-12-18T13:23:56;2.90;75.30
41437;DHT22;27178;49.460;10.850;2022-12-18T13:26:31;2.90;75.30
41437;DHT22;27178;49.460;10.850;2022-12-18T13:29:00;3.00;75.20
41437;DHT22;27178;49.460;10.850;2022-12-18T13:34:29;3.10;74.00
41437;DHT22;27178;49.460;10.850;2022-12-18T13:37:38;3.10;74.20
41437;DHT22;27178;49.460;10.850;2022-12-18T13:43:26;3.00;73.80
41437;DHT22;27178;49.460;10.850;2022-12-18T13:46:17;3.00;73.60
41437;DHT22;27178;49.460;10.850;2022-12-18T13:48:56;3.00;73.40
41437;DHT22;27178;49.460;10.850;2022-12-18T13:51:26;2.90;73.50
41437;DHT22;27178;49.460;10.850;2022-12-18T13:53:58;2.90;73.30
41437;DHT22;27178;49.460;10.850;2022-12-18T13:56:29;2.90;73.40
41437;DHT22;27178;49.460;10.850;2022-12-18T13:59:11;2.80;73.30
41437;DHT22;27178;49.460;10.850;2022-12-18T14:01:50;2.80;73.30
41437;DHT22;27178;49.460;10.850;2022-12-18T14:04:22;2.70;73.50
41437;DHT22;27178;49.460;10.850;2022-12-18T14:06:55;2.70;73.40
41437;DHT22;27178;49.460;10.850;2022-12-18T14:09:29;2.70;73.40
41437;DHT22;27178;49.460;10.850;2022-12-18T14:11:58;2.60;73.30
41437;DHT22;27178;49.460;10.850;2022-12-18T14:14:46;2.60;73.20
41437;DHT22;27178;49.460;10.850;2022-12-18T14:17:19;2.50;73.20
41437;DHT22;27178;49.460;10.850;2022-12-18T14:19:49;2.50;73.30
41437;DHT22;27178;49.460;10.850;2022-12-18T14:22:20;2.50;73.50
41437;DHT22;27178;49.460;10.850;2022-12-18T14:25:10;2.40;73.60
41437;DHT22;27178;49.460;10.850;2022-12-18T14:27:43;2.40;73.30
41437;DHT22;27178;49.460;10.850;2022-12-18T14:30:28;2.40;73.40
41437;DHT22;27178;49.460;10.850;2022-12-18T14:33:02;2.30;73.00
41437;DHT22;27178;49.460;10.850;2022-12-18T14:35:30;2.30;73.00
41437;DHT22;27178;49.460;10.850;2022-12-18T14:38:21;2.20;73.10
41437;DHT22;27178;49.460;10.850;2022-12-18T14:40:55;2.20;73.20
41437;DHT22;27178;49.460;10.850;2022-12-18T14:43:25;2.10;73.40
41437;DHT22;27178;49.460;10.850;2022-12-18T14:45:53;2.10;73.50
41437;DHT22;27178;49.460;10.850;2022-12-18T14:48:33;2.10;73.40
41437;DHT22;27178;49.460;10.850;2022-12-18T14:51:05;2.00;73.40
41437;DHT22;27178;49.460;10.850;2022-12-18T14:53:37;2.00;73.40
41437;DHT22;27178;49.460;10.850;2022-12-18T14:56:16;1.90;73.30
41437;DHT22;27178;49.460;10.850;2022-12-18T14:58:50;1.90;73.20
41437;DHT22;27178;49.460;10.850;2022-12-18T15:01:26;1.90;73.20
41437;DHT22;27178;49.460;10.850;2022-12-18T15:03:56;1.80;73.30
41437;DHT22;27178;49.460;10.850;2022-12-18T15:06:29;1.70;73.20
41437;DHT22;27178;49.460;10.850;2022-12-18T15:08:58;1.60;73.40
41437;DHT22;27178;49.460;10.850;2022-12-18T15:11:34;1.60;73.40
41437;DHT22;27178;49.460;10.850;2022-12-18T15:14:31;1.60;73.60
41437;DHT22;27178;49.460;10.850;2022-12-18T15:17:04;1.50;73.50
41437;DHT22;27178;49.460;10.850;2022-12-18T15:19:37;1.50;73.70
41437;DHT22;27178;49.460;10.850;2022-12-18T15:22:19;1.40;73.70
41437;DHT22;27178;49.460;10.850;2022-12-18T15:24:48;1.40;73.80
41437;DHT22;27178;49.460;10.850;2022-12-18T15:27:28;1.30;73.80
41437;DHT22;27178;49.460;10.850;2022-12-18T15:30:18;1.30;74.00
41437;DHT22;27178;49.460;10.850;2022-12-18T15:32:46;1.20;74.00
41437;DHT22;27178;49.460;10.850;2022-12-18T15:35:19;1.20;74.10
41437;DHT22;27178;49.460;10.850;2022-12-18T15:37:47;1.10;74.10
41437;DHT22;27178;49.460;10.850;2022-12-18T15:40:18;1.10;74.20
41437;DHT22;27178;49.460;10.850;2022-12-18T15:42:51;1.10;74.30
41437;DHT22;27178;49.460;10.850;2022-12-18T15:45:38;1.00;74.30
41437;DHT22;27178;49.460;10.850;2022-12-18T15:48:18;1.00;74.30
41437;DHT22;27178;49.460;10.850;2022-12-18T15:50:48;1.00;74.40
41437;DHT22;27178;49.460;10.850;2022-12-18T15:53:17;0.90;74.30
41437;DHT22;27178;49.460;10.850;2022-12-18T15:55:46;0.90;74.40
41437;DHT22;27178;49.460;10.850;2022-12-18T15:58:34;0.90;74.60
41437;DHT22;27178;49.460;10.850;2022-12-18T16:01:02;0.80;74.50
41437;DHT22;27178;49.460;10.850;2022-12-18T16:03:31;0.80;74.50
41437;DHT22;27178;49.460;10.850;2022-12-18T16:05:59;0.80;74.60
41437;DHT22;27178;49.460;10.850;2022-12-18T16:08:30;0.80;74.70